Time;durP1;ratioP1;P1;durP2;ratioP2;P2;SDS_P1;SDS_P2;PMS_P1;PMS_P2;Temp;Humidity;BMP_temperature;BMP_pressure;BME280_temperature;BME280_humidity;BME280_pressure;Samples;Min_cycle;Max_cycle;Signal;HPM_P1;HPM_P2
2022/03/01 00:02:27;;;;;;;4.87;4.67;;;;;;;3.95;70.52;100444.75;4994952;28;20221;-68
2022/03/01 00:04:54;;;;;;;4.27;4.07;;;;;;;4.02;70.34;100448.53;4995568;28;20201;-69
2022/03/01 00:07:21;;;;;;;4.07;3.87;;;;;;;3.89;70.54;100437.41;4995380;28;20434;-68
2022/03/01 00:09:47;;;;;;;4.50;4.20;;;;;;;3.71;70.81;100434.53;4995173;28;20199;-68
2022/03/01 00:12:14;;;;;;;4.60;4.40;;;;;;;3.70;70.95;100432.88;4994955;28;20230;-69
2022/03/01 00:14:42;;;;;;;4.63;4.03;;;;;;;3.46;70.83;100437.56;4998888;28;20720;-70
2022/03/01 00:17:09;;;;;;;5.00;4.77;;;;;;;3.40;71.78;100435.44;5013242;28;21002;-69
2022/03/01 00:19:35;;;;;;;4.63;4.43;;;;;;;3.60;72.12;100437.22;5013322;28;20235;-69
2022/03/01 00:22:02;;;;;;;4.80;4.50;;;;;;;3.58;71.77;100439.16;5013386;28;20202;-68
2022/03/01 00:24:29;;;;;;;5.67;5.27;;;;;;;3.45;71.51;100428.03;5014534;28;20233;-68
2022/03/01 00:26:56;;;;;;;5.93;5.40;;;;;;;3.48;72.09;100406.72;5014446;28;20233;-68
2022/03/01 00:29:22;;;;;;;5.80;5.30;;;;;;;3.72;71.65;100420.44;5014461;28;20665;-68
2022/03/01 00:31:51;;;;;;;6.10;5.67;;;;;;;3.83;71.33;100417.72;5015480;28;20225;-68
2022/03/01 00:34:17;;;;;;;5.20;4.93;;;;;;;3.87;70.74;100413.88;5014142;28;20437;-68
2022/03/01 00:36:44;;;;;;;5.10;4.80;;;;;;;3.94;71.75;100415.03;5014276;28;20202;-68
2022/03/01 00:39:11;;;;;;;5.63;5.33;;;;;;;4.02;71.22;100412.56;5014110;28;20189;-68
2022/03/01 00:41:38;;;;;;;5.40;5.00;;;;;;;4.01;70.23;100410.88;5013578;28;20576;-70
2022/03/01 00:44:05;;;;;;;5.57;5.17;;;;;;;3.95;70.30;100410.59;5013944;28;20616;-68
2022/03/01 00:46:32;;;;;;;5.50;5.17;;;;;;;3.88;71.12;100410.28;5013926;28;20567;-69
2022/03/01 00:49:00;;;;;;;5.67;5.27;;;;;;;3.91;71.28;100404.75;5013699;28;20658;-69
2022/03/01 00:51:29;;;;;;;6.07;5.70;;;;;;;3.93;71.52;100402.81;5014065;28;20433;-69
2022/03/01 00:53:56;;;;;;;5.77;5.37;;;;;;;3.74;71.54;100408.00;5013537;28;20218;-69
2022/03/01 00:56:23;;;;;;;6.50;6.13;;;;;;;3.76;71.50;100405.25;5013772;28;20576;-68
2022/03/01 00:58:50;;;;;;;6.27;5.87;;;;;;;3.76;72.34;100400.81;5014092;28;20202;-68
2022/03/01 01:01:17;;;;;;;6.20;5.90;;;;;;;3.59;72.67;100390.09;5013781;28;20917;-68
2022/03/01 01:03:44;;;;;;;5.93;5.63;;;;;;;3.25;74.24;100386.84;5014233;28;20198;-68
2022/03/01 01:06:12;;;;;;;6.20;5.80;;;;;;;3.30;74.71;100386.44;5013747;28;20728;-67
2022/03/01 01:08:39;;;;;;;5.90;5.50;;;;;;;3.42;75.00;100391.50;5013923;28;20479;-68
2022/03/01 01:11:05;;;;;;;6.23;5.83;;;;;;;3.43;74.93;100382.66;5014111;28;20616;-68
2022/03/01 01:13:32;;;;;;;5.53;5.23;;;;;;;3.48;74.22;100385.72;5013689;28;20655;-68
2022/03/01 01:15:59;;;;;;;6.33;5.93;;;;;;;3.15;75.78;100380.66;5013797;28;20260;-68
2022/03/01 01:18:26;;;;;;;5.57;5.17;;;;;;;3.12;75.98;100378.31;5013433;28;20252;-67
2022/03/01 01:20:53;;;;;;;5.87;5.50;;;;;;;3.15;75.44;100385.91;5013839;28;20277;-67
2022/03/01 01:23:21;;;;;;;5.80;5.50;;;;;;;3.18;76.53;100392.75;5013616;28;20433;-68
2022/03/01 01:25:48;;;;;;;6.10;5.70;;;;;;;3.35;75.28;100381.66;5013218;28;20834;-68
2022/03/01 01:28:15;;;;;;;5.83;5.43;;;;;;;3.43;75.14;100384.47;5013084;28;20453;-68
2022/03/01 01:30:42;;;;;;;5.80;5.40;;;;;;;3.50;74.94;100389.06;5013530;28;20194;-68
2022/03/01 01:33:09;;;;;;;6.57;6.20;;;;;;;3.57;74.91;100386.75;5013302;28;20484;-68
2022/03/01 01:35:37;;;;;;;5.70;5.40;;;;;;;3.58;73.93;100389.25;5012975;28;20433;-68
2022/03/01 01:38:04;;;;;;;5.90;5.40;;;;;;;3.62;73.93;100393.28;5013825;28;20194;-69
2022/03/01 01:40:34;;;;;;;5.37;5.07;;;;;;;3.46;73.80;100392.91;5013174;28;20441;-71
2022/03/01 01:43:03;;;;;;;4.90;4.70;;;;;;;3.53;74.18;100386.19;5012893;28;20800;-68
2022/03/01 01:45:30;;;;;;;5.20;4.80;;;;;;;3.66;74.47;100388.59;5012933;28;20193;-68
2022/03/01 01:47:59;;;;;;;5.87;5.47;;;;;;;3.68;73.61;100392.75;5013175;28;20441;-68
2022/03/01 01:50:27;;;;;;;5.97;5.47;;;;;;;3.66;73.60;100392.06;5013135;28;20194;-70
2022/03/01 01:52:55;;;;;;;5.90;5.43;;;;;;;3.59;72.96;100385.66;5012617;28;20287;-68
2022/03/01 01:55:22;;;;;;;5.33;5.03;;;;;;;3.80;73.03;100391.69;5011872;28;20193;-68
2022/03/01 01:57:50;;;;;;;5.07;4.77;;;;;;;3.83;72.00;100391.44;5012732;28;20197;-68
2022/03/01 02:00:18;;;;;;;4.73;4.53;;;;;;;3.60;72.11;100387.31;5012619;28;20198;-68
2022/03/01 02:02:45;;;;;;;5.17;4.80;;;;;;;3.60;72.44;100384.69;5012945;28;20487;-68
2022/03/01 02:05:12;;;;;;;5.57;5.00;;;;;;;3.73;72.96;100384.50;5012730;28;20224;-68
2022/03/01 02:07:45;;;;;;;5.03;4.83;;;;;;;3.77;73.28;100381.47;5012935;28;20280;-68
2022/03/01 02:10:12;;;;;;;5.03;4.73;;;;;;;3.83;73.22;100375.69;5012677;28;20528;-68
2022/03/01 02:12:38;;;;;;;6.07;5.77;;;;;;;3.86;73.15;100385.94;5012551;28;20268;-68
2022/03/01 02:15:08;;;;;;;6.27;5.97;;;;;;;3.86;72.68;100375.44;5012367;28;20198;-68
2022/03/01 02:17:35;;;;;;;5.43;4.87;;;;;;;3.84;72.62;100377.34;5012754;28;20289;-68
2022/03/01 02:20:11;;;;;;;5.53;5.20;;;;;;;3.94;73.15;100372.97;5013571;28;20190;-68
2022/03/01 02:22:38;;;;;;;5.03;4.73;;;;;;;4.01;72.32;100374.09;5012993;28;20189;-69
2022/03/01 02:25:06;;;;;;;5.00;4.80;;;;;;;3.99;72.67;100370.78;5011990;28;20281;-68
2022/03/01 02:27:33;;;;;;;5.33;5.03;;;;;;;3.99;72.49;100370.78;5012148;28;20198;-70
2022/03/01 02:29:59;;;;;;;5.07;4.77;;;;;;;4.03;72.16;100364.28;5012208;28;20260;-68
2022/03/01 02:32:26;;;;;;;5.07;4.80;;;;;;;4.05;72.20;100359.72;5012125;28;20194;-68
2022/03/01 02:34:53;;;;;;;5.37;5.00;;;;;;;4.07;72.80;100352.53;5012341;28;20194;-68
2022/03/01 02:37:21;;;;;;;5.40;5.10;;;;;;;4.06;71.98;100350.88;5012187;28;20256;-68
2022/03/01 02:39:48;;;;;;;5.37;4.97;;;;;;;4.01;72.80;100342.53;5012248;28;20432;-68
2022/03/01 02:42:14;;;;;;;5.67;5.37;;;;;;;3.98;73.41;100348.09;5012168;28;20247;-69
2022/03/01 02:44:41;;;;;;;9.10;6.63;;;;;;;3.97;74.13;100346.41;5011545;28;20248;-68
2022/03/01 02:47:08;;;;;;;6.70;6.03;;;;;;;3.94;74.29;100340.59;5011900;28;20744;-68
2022/03/01 02:49:35;;;;;;;5.67;5.37;;;;;;;3.89;74.51;100343.59;5011941;28;20728;-68
2022/03/01 02:52:02;;;;;;;6.17;5.67;;;;;;;3.81;74.41;100343.47;5012363;28;20284;-67
2022/03/01 02:54:31;;;;;;;6.60;6.03;;;;;;;3.74;74.34;100336.22;5011745;28;20218;-67
2022/03/01 02:57:00;;;;;;;7.17;5.60;;;;;;;3.64;74.82;100338.81;5011807;28;20437;-67
2022/03/01 02:59:28;;;;;;;6.43;6.03;;;;;;;3.52;75.30;100334.59;5011672;28;20654;-67
2022/03/01 03:01:55;;;;;;;9.70;5.80;;;;;;;3.38;76.42;100324.44;5012776;28;20224;-68
2022/03/01 03:04:22;;;;;;;6.50;5.90;;;;;;;3.24;76.83;100329.22;5011798;28;20682;-68
2022/03/01 03:06:49;;;;;;;7.40;6.80;;;;;;;2.95;77.75;100320.31;5015640;28;20440;-68
2022/03/01 03:09:16;;;;;;;7.00;6.07;;;;;;;2.85;79.03;100317.63;5016174;28;20444;-68
2022/03/01 03:11:44;;;;;;;5.77;5.33;;;;;;;2.71;78.81;100320.56;5016379;28;20563;-68
2022/03/01 03:14:11;;;;;;;6.80;5.90;;;;;;;2.70;79.75;100326.75;5016001;28;20480;-68
2022/03/01 03:16:38;;;;;;;5.83;5.43;;;;;;;2.70;79.46;100329.38;5015977;28;20424;-68
2022/03/01 03:19:05;;;;;;;6.20;5.60;;;;;;;2.61;80.41;100314.41;5015982;28;20444;-68
2022/03/01 03:21:31;;;;;;;5.90;5.60;;;;;;;2.73;80.54;100344.88;5015927;28;20449;-68
2022/03/01 03:23:58;;;;;;;6.27;5.87;;;;;;;2.73;80.62;100339.63;5015391;28;20279;-68
2022/03/01 03:26:25;;;;;;;6.07;5.60;;;;;;;2.69;80.74;100334.78;5016229;28;20511;-68
2022/03/01 03:28:53;;;;;;;7.30;6.70;;;;;;;2.58;81.26;100335.63;5015855;28;20453;-68
2022/03/01 03:31:19;;;;;;;7.60;6.93;;;;;;;2.54;81.17;100334.22;5015541;28;20440;-68
2022/03/01 03:33:46;;;;;;;7.97;6.83;;;;;;;2.51;81.71;100339.72;5015223;28;20221;-68
2022/03/01 03:36:13;;;;;;;10.20;7.30;;;;;;;2.29;82.07;100342.38;5015292;28;20571;-68
2022/03/01 03:38:39;;;;;;;9.10;7.93;;;;;;;2.26;84.00;100345.28;5015459;28;20436;-68
2022/03/01 03:41:06;;;;;;;15.30;9.80;;;;;;;2.32;83.64;100344.75;5015158;28;20448;-70
2022/03/01 03:43:33;;;;;;;12.83;9.63;;;;;;;2.40;84.26;100347.59;5015258;28;20448;-68
2022/03/01 03:46:01;;;;;;;13.97;10.60;;;;;;;2.48;83.99;100349.59;5015519;28;20507;-68
2022/03/01 03:48:28;;;;;;;14.97;10.20;;;;;;;2.52;84.23;100341.38;5014874;28;20444;-68
2022/03/01 03:50:55;;;;;;;13.23;10.80;;;;;;;2.47;84.79;100338.31;5014823;28;20444;-68
2022/03/01 03:53:21;;;;;;;14.63;12.07;;;;;;;2.45;84.79;100336.75;5014918;28;20480;-68
2022/03/01 03:55:48;;;;;;;12.70;11.40;;;;;;;2.44;85.52;100337.69;5014911;28;20449;-67
2022/03/01 03:58:15;;;;;;;12.40;11.17;;;;;;;2.40;84.60;100331.03;5014728;28;20197;-68
2022/03/01 04:00:41;;;;;;;13.10;11.80;;;;;;;2.39;84.77;100327.59;5014513;28;20440;-68
2022/03/01 04:03:09;;;;;;;13.13;11.77;;;;;;;2.45;85.65;100329.72;5014550;28;20944;-68
2022/03/01 04:05:36;;;;;;;12.90;11.63;;;;;;;2.47;85.02;100322.56;5014595;28;20490;-69
2022/03/01 04:08:03;;;;;;;17.53;13.30;;;;;;;2.39;84.96;100324.97;5014457;28;20502;-68
2022/03/01 04:10:30;;;;;;;13.30;11.90;;;;;;;2.46;85.29;100320.06;5014843;28;20441;-68
2022/03/01 04:12:56;;;;;;;14.17;12.63;;;;;;;2.51;85.50;100318.75;5014844;28;20495;-68
2022/03/01 04:15:23;;;;;;;14.60;11.87;;;;;;;2.61;85.45;100316.19;5014116;28;21006;-68
2022/03/01 04:17:50;;;;;;;12.70;11.23;;;;;;;2.68;85.92;100315.56;5013712;28;20568;-68
2022/03/01 04:20:21;;;;;;;15.43;11.83;;;;;;;2.71;84.95;100320.56;5014701;28;20447;-68
2022/03/01 04:22:48;;;;;;;17.87;14.00;;;;;;;2.74;85.61;100315.03;5014053;28;20456;-68
2022/03/01 04:25:15;;;;;;;15.20;12.30;;;;;;;2.75;84.99;100314.13;5014309;28;20524;-68
2022/03/01 04:27:42;;;;;;;21.10;14.33;;;;;;;2.78;84.92;100310.41;5014787;28;20433;-68
2022/03/01 04:30:11;;;;;;;18.63;13.73;;;;;;;2.83;84.99;100322.19;5014226;28;21026;-67
2022/03/01 04:32:38;;;;;;;13.43;12.13;;;;;;;2.86;84.44;100319.28;5014280;28;20527;-68
2022/03/01 04:35:06;;;;;;;12.80;11.53;;;;;;;2.88;84.54;100324.41;5014176;28;20538;-70
2022/03/01 04:37:34;;;;;;;14.20;12.77;;;;;;;2.89;83.40;100316.41;5014018;28;20449;-69
2022/03/01 04:40:00;;;;;;;16.60;12.30;;;;;;;2.88;84.73;100317.38;5013747;28;20912;-68
2022/03/01 04:42:27;;;;;;;18.23;12.17;;;;;;;2.90;84.23;100325.94;5013658;28;20952;-68
2022/03/01 04:44:54;;;;;;;14.13;11.93;;;;;;;2.91;83.62;100326.78;5014433;28;20445;-68
2022/03/01 04:47:20;;;;;;;16.13;12.57;;;;;;;2.93;83.34;100328.31;5014097;28;20259;-68
2022/03/01 04:49:48;;;;;;;19.57;13.73;;;;;;;2.84;84.18;100323.84;5014007;28;20445;-69
2022/03/01 04:52:15;;;;;;;19.37;14.60;;;;;;;2.66;83.95;100335.81;5013752;28;20506;-68
2022/03/01 04:54:43;;;;;;;15.13;13.13;;;;;;;2.50;84.35;100337.22;5013939;28;20580;-68
2022/03/01 04:57:09;;;;;;;14.33;12.83;;;;;;;2.42;84.71;100343.09;5013962;28;20808;-68
2022/03/01 04:59:37;;;;;;;14.93;11.67;;;;;;;2.40;86.00;100337.13;5013997;28;20440;-68
2022/03/01 05:02:04;;;;;;;23.57;14.00;;;;;;;2.37;86.26;100332.13;5013785;28;20436;-68
2022/03/01 05:04:31;;;;;;;14.57;12.37;;;;;;;2.27;86.10;100330.38;5013808;28;20445;-67
2022/03/01 05:06:57;;;;;;;16.87;13.57;;;;;;;2.21;87.02;100336.91;5013638;28;20444;-69
2022/03/01 05:09:24;;;;;;;17.23;13.60;;;;;;;2.10;87.42;100339.59;5013793;28;20499;-67
2022/03/01 05:11:52;;;;;;;15.57;13.67;;;;;;;2.01;87.15;100348.19;5013448;28;20519;-68
2022/03/01 05:14:20;;;;;;;18.27;13.57;;;;;;;1.96;87.67;100358.16;5013302;28;20477;-69
2022/03/01 05:16:47;;;;;;;17.03;14.50;;;;;;;1.86;88.54;100346.75;5014090;28;20445;-67
2022/03/01 05:19:15;;;;;;;17.30;13.43;;;;;;;1.82;89.33;100350.56;5013341;28;20437;-67
2022/03/01 05:21:42;;;;;;;23.37;15.23;;;;;;;1.77;89.56;100352.72;5013056;28;20862;-66
2022/03/01 05:24:09;;;;;;;24.30;16.90;;;;;;;1.90;91.34;100353.41;5013309;28;20476;-69
2022/03/01 05:26:36;;;;;;;17.37;15.23;;;;;;;1.92;90.65;100354.13;5013328;28;20445;-67
2022/03/01 05:29:04;;;;;;;18.37;12.97;;;;;;;1.93;89.87;100353.19;5012937;28;20957;-66
2022/03/01 05:31:31;;;;;;;17.07;13.27;;;;;;;1.98;89.94;100361.50;5013486;28;20444;-67
2022/03/01 05:33:58;;;;;;;24.30;14.57;;;;;;;2.08;90.74;100362.44;5012511;28;20981;-67
2022/03/01 05:36:25;;;;;;;17.87;13.43;;;;;;;2.19;89.63;100365.06;5012968;28;20507;-68
2022/03/01 05:38:51;;;;;;;23.63;16.33;;;;;;;2.30;88.33;100361.56;5012768;28;20937;-67
2022/03/01 05:41:19;;;;;;;20.07;14.70;;;;;;;2.44;88.01;100374.41;5012813;28;20492;-68
2022/03/01 05:43:46;;;;;;;24.00;16.87;;;;;;;2.49;87.40;100373.06;5013245;28;20445;-67
2022/03/01 05:46:14;;;;;;;19.50;13.43;;;;;;;2.54;87.34;100376.19;5012761;28;20441;-67
2022/03/01 05:48:41;;;;;;;15.07;12.47;;;;;;;2.54;86.62;100370.94;5012675;28;20433;-67
2022/03/01 05:51:07;;;;;;;19.17;13.73;;;;;;;2.55;87.36;100375.22;5012410;28;20503;-66
2022/03/01 05:53:34;;;;;;;15.73;12.23;;;;;;;2.61;87.54;100379.16;5012531;28;21099;-66
2022/03/01 05:56:01;;;;;;;16.93;11.90;;;;;;;2.72;87.50;100376.47;5012403;28;20503;-66
2022/03/01 05:58:27;;;;;;;20.40;11.20;;;;;;;2.71;86.50;100380.91;5011883;28;20880;-66
2022/03/01 06:00:54;;;;;;;15.90;12.13;;;;;;;2.77;87.24;100385.63;5012303;28;20502;-66
2022/03/01 06:03:22;;;;;;;17.27;12.20;;;;;;;2.90;87.26;100388.91;5012106;28;20441;-66
2022/03/01 06:05:49;;;;;;;14.53;13.07;;;;;;;2.96;85.13;100393.66;5012319;28;20440;-66
2022/03/01 06:08:16;;;;;;;17.43;12.93;;;;;;;3.01;85.07;100391.50;5008882;28;20494;-67
2022/03/01 06:10:43;;;;;;;13.23;11.17;;;;;;;3.12;84.56;100393.22;5010897;28;21015;-67
2022/03/01 06:13:09;;;;;;;11.80;10.70;;;;;;;3.27;84.56;100397.22;5011684;28;20441;-67
2022/03/01 06:15:36;;;;;;;10.47;9.63;;;;;;;3.58;85.63;100399.75;5008754;28;20505;-65
2022/03/01 06:18:03;;;;;;;10.37;9.17;;;;;;;3.73;82.06;100406.34;5007450;28;20511;-65
2022/03/01 06:20:31;;;;;;;13.83;12.73;;;;;;;3.66;80.86;100413.06;5004450;28;20198;-70
2022/03/01 06:22:58;;;;;;;11.90;10.73;;;;;;;3.71;80.11;100418.78;5003685;28;20494;-71
2022/03/01 06:25:25;;;;;;;10.57;9.60;;;;;;;3.77;79.43;100423.50;5006273;28;20459;-68
2022/03/01 06:27:53;;;;;;;11.83;10.37;;;;;;;3.71;78.67;100417.91;5006453;28;20213;-70
2022/03/01 06:30:20;;;;;;;10.13;9.20;;;;;;;3.76;79.50;100415.75;5005314;28;20346;-70
2022/03/01 06:32:47;;;;;;;10.83;9.77;;;;;;;3.75;78.55;100419.31;5003515;28;20198;-72
2022/03/01 06:35:14;;;;;;;16.47;11.80;;;;;;;3.71;78.87;100426.66;4996024;28;20894;-68
2022/03/01 06:37:42;;;;;;;10.60;9.60;;;;;;;3.62;78.44;100430.06;4993293;28;20264;-68
2022/03/01 06:40:12;;;;;;;11.33;10.40;;;;;;;3.40;78.66;100421.47;4992429;28;20198;-70
2022/03/01 06:42:39;;;;;;;10.73;9.07;;;;;;;3.32;78.89;100413.41;5010401;28;20225;-69
2022/03/01 06:45:07;;;;;;;9.20;8.43;;;;;;;3.41;80.20;100425.75;5004788;28;20445;-73
2022/03/01 06:47:34;;;;;;;9.40;8.60;;;;;;;3.05;78.41;100374.53;4986694;28;20206;-72
2022/03/01 06:50:01;;;;;;;13.50;12.23;;;;;;;3.35;79.22;100421.84;5001520;28;20444;-69
2022/03/01 06:52:31;;;;;;;13.53;9.67;;;;;;;3.35;79.49;100421.03;5009222;28;20437;-70
2022/03/01 06:54:59;;;;;;;12.87;11.57;;;;;;;3.37;79.60;100419.94;5009506;28;20593;-70
2022/03/01 06:57:26;;;;;;;15.53;12.47;;;;;;;3.33;80.28;100426.41;5016111;28;20223;-69
2022/03/01 06:59:53;;;;;;;31.90;17.73;;;;;;;3.21;79.82;100423.97;5028275;28;20664;-71
2022/03/01 07:02:20;;;;;;;28.43;17.53;;;;;;;3.15;79.51;100424.47;5026974;28;21006;-69
2022/03/01 07:04:47;;;;;;;23.13;15.43;;;;;;;3.21;80.60;100427.44;5015521;28;20202;-72
2022/03/01 07:07:14;;;;;;;19.63;13.97;;;;;;;3.31;80.78;100430.13;5003605;28;20200;-69
2022/03/01 07:09:40;;;;;;;10.03;9.17;;;;;;;3.42;79.50;100433.53;5007116;28;20198;-73
2022/03/01 07:12:09;;;;;;;9.10;8.37;;;;;;;3.52;79.88;100429.16;5006758;28;20248;-71
2022/03/01 07:14:36;;;;;;;15.20;14.10;;;;;;;3.50;79.06;100425.84;5006558;28;20372;-69
2022/03/01 07:17:04;;;;;;;10.93;9.93;;;;;;;3.64;79.37;100415.00;5005474;28;20205;-69
2022/03/01 07:19:31;;;;;;;13.53;11.20;;;;;;;3.83;78.41;100422.97;5006312;28;20263;-71
2022/03/01 07:21:58;;;;;;;16.47;10.73;;;;;;;3.99;77.63;100427.75;5006796;28;20190;-69
2022/03/01 07:24:24;;;;;;;12.20;10.07;;;;;;;3.95;76.74;100416.69;5004613;28;20775;-71
2022/03/01 07:26:51;;;;;;;10.87;9.87;;;;;;;3.90;76.47;100423.28;5008303;28;20459;-72
2022/03/01 07:29:19;;;;;;;20.40;11.90;;;;;;;3.91;75.98;100425.78;5007815;28;20244;-72
2022/03/01 07:31:46;;;;;;;15.43;10.80;;;;;;;3.83;76.72;100422.97;5013254;28;20433;-74
2022/03/01 07:34:13;;;;;;;15.30;11.60;;;;;;;3.89;75.99;100425.06;5025667;28;20190;-71
2022/03/01 07:36:39;;;;;;;13.27;11.20;;;;;;;4.06;76.80;100424.47;5006532;28;20194;-70
2022/03/01 07:39:06;;;;;;;14.33;11.93;;;;;;;4.26;76.81;100428.84;5007587;28;20190;-69
2022/03/01 07:41:33;;;;;;;11.97;9.60;;;;;;;4.44;75.14;100429.88;5005829;28;20255;-70
2022/03/01 07:43:59;;;;;;;10.50;9.23;;;;;;;4.51;73.59;100433.63;5008475;28;20193;-70
2022/03/01 07:46:28;;;;;;;10.10;9.20;;;;;;;4.50;74.29;100431.94;5009132;28;20195;-69
2022/03/01 07:48:54;;;;;;;10.27;9.37;;;;;;;4.46;73.44;100438.44;5009477;28;20272;-69
2022/03/01 07:51:21;;;;;;;9.17;7.97;;;;;;;4.56;72.28;100439.31;5009238;28;20256;-68
2022/03/01 07:53:48;;;;;;;8.20;7.50;;;;;;;4.51;73.15;100444.16;5012031;28;20190;-72
2022/03/01 07:56:15;;;;;;;15.27;8.57;;;;;;;4.38;73.50;100445.34;5013289;28;20221;-69
2022/03/01 07:58:43;;;;;;;11.77;9.30;;;;;;;4.43;74.85;100441.38;5011711;28;20204;-72
2022/03/01 08:01:09;;;;;;;10.93;9.93;;;;;;;4.51;75.02;100444.16;5011135;28;20670;-70
2022/03/01 08:03:37;;;;;;;10.20;9.40;;;;;;;4.69;74.75;100445.16;5012229;28;20198;-69
2022/03/01 08:06:04;;;;;;;21.73;9.97;;;;;;;4.80;73.91;100452.09;5012242;28;20206;-75
2022/03/01 08:08:31;;;;;;;11.33;10.33;;;;;;;4.94;73.49;100452.53;5012792;28;20190;-73
2022/03/01 08:10:58;;;;;;;10.43;9.10;;;;;;;4.90;73.96;100452.97;5011467;28;20194;-69
2022/03/01 08:13:25;;;;;;;12.17;10.97;;;;;;;4.98;74.58;100446.03;5012723;28;20209;-71
2022/03/01 08:15:52;;;;;;;12.13;10.40;;;;;;;5.24;71.92;100457.66;5012086;28;20687;-75
2022/03/01 08:18:18;;;;;;;12.33;11.03;;;;;;;5.53;71.62;100461.16;5010357;28;20248;-78
2022/03/01 08:20:47;;;;;;;16.90;10.13;;;;;;;5.89;69.75;100461.38;4998964;28;20257;-76
2022/03/01 08:23:13;;;;;;;10.30;9.20;;;;;;;6.21;68.20;100475.03;4991832;28;20198;-78
2022/03/01 08:25:40;;;;;;;9.60;8.67;;;;;;;6.32;68.03;100472.22;5007470;28;20655;-70
2022/03/01 08:28:07;;;;;;;13.53;9.70;;;;;;;6.44;67.67;100455.19;5018317;28;20209;-70
2022/03/01 08:30:35;;;;;;;11.97;9.90;;;;;;;6.67;66.32;100483.72;5028153;28;20190;-71
2022/03/01 08:33:02;;;;;;;9.73;8.83;;;;;;;6.55;65.80;100476.97;5011530;28;20262;-72
2022/03/01 08:35:29;;;;;;;11.37;10.37;;;;;;;6.63;65.82;100481.50;5014876;28;20273;-74
2022/03/01 08:38:00;;;;;;;10.57;8.90;;;;;;;6.74;67.75;100478.69;5016176;28;20208;-73
2022/03/01 08:40:27;;;;;;;9.57;8.67;;;;;;;6.86;65.77;100474.84;5010911;28;20191;-70
2022/03/01 08:42:54;;;;;;;10.30;9.50;;;;;;;6.93;65.02;100473.25;5010654;28;20200;-68
2022/03/01 08:45:20;;;;;;;9.27;8.50;;;;;;;6.96;65.27;100473.81;5010774;28;20746;-71
2022/03/01 08:47:47;;;;;;;9.73;8.73;;;;;;;7.10;63.06;100467.19;5012400;28;20255;-77
2022/03/01 08:50:14;;;;;;;11.03;9.90;;;;;;;7.08;64.18;100469.97;5010862;28;20194;-71
2022/03/01 08:52:41;;;;;;;14.93;12.27;;;;;;;7.32;65.53;100464.09;5010290;28;20248;-75
2022/03/01 08:55:10;;;;;;;12.43;11.23;;;;;;;7.57;64.61;100468.59;5009100;28;20229;-73
2022/03/01 08:57:37;;;;;;;13.57;11.77;;;;;;;7.74;64.53;100467.72;5009275;28;20198;-71
2022/03/01 09:00:07;;;;;;;13.57;11.50;;;;;;;7.93;62.52;100471.00;5010752;28;20703;-71
2022/03/01 09:02:34;;;;;;;21.53;12.00;;;;;;;8.21;63.42;100463.78;5009767;28;20194;-69
2022/03/01 09:05:01;;;;;;;12.97;11.77;;;;;;;8.35;62.84;100465.84;5010655;28;20260;-69
2022/03/01 09:07:27;;;;;;;14.97;12.17;;;;;;;8.57;60.66;100481.13;5010271;28;20202;-68
2022/03/01 09:09:54;;;;;;;14.10;12.47;;;;;;;8.71;59.46;100477.91;5009924;28;20190;-71
2022/03/01 09:12:22;;;;;;;14.43;12.43;;;;;;;8.76;58.92;100481.75;5010031;28;20190;-69
2022/03/01 09:14:49;;;;;;;17.80;13.20;;;;;;;8.88;58.45;100474.31;5009875;28;20276;-71
2022/03/01 09:17:15;;;;;;;17.07;13.53;;;;;;;8.97;60.33;100463.59;5009854;28;20190;-70
2022/03/01 09:19:42;;;;;;;21.17;14.33;;;;;;;9.07;58.45;100468.75;5008846;28;20208;-74
2022/03/01 09:22:09;;;;;;;26.27;19.43;;;;;;;9.17;57.14;100474.72;5007975;28;20205;-72
2022/03/01 09:24:36;;;;;;;19.83;17.53;;;;;;;8.97;58.02;100476.00;5008915;28;20276;-71
2022/03/01 09:27:04;;;;;;;19.43;13.30;;;;;;;9.20;58.46;100472.56;5010542;28;20190;-73
2022/03/01 09:29:32;;;;;;;20.50;13.37;;;;;;;9.48;57.39;100473.09;5009324;28;20193;-71
2022/03/01 09:31:59;;;;;;;29.10;13.27;;;;;;;9.61;54.44;100463.63;5011157;28;20221;-69
2022/03/01 09:34:26;;;;;;;12.50;11.03;;;;;;;9.66;54.87;100468.47;5009532;28;20570;-70
2022/03/01 09:36:53;;;;;;;13.33;9.07;;;;;;;10.19;53.61;100471.41;5009422;28;20601;-73
2022/03/01 09:39:20;;;;;;;9.03;8.10;;;;;;;10.89;50.14;100478.44;5008219;28;20194;-84
2022/03/01 09:41:47;;;;;;;7.03;5.70;;;;;;;11.53;44.50;100493.16;5008865;28;20194;-75
2022/03/01 09:44:16;;;;;;;6.93;6.33;;;;;;;11.78;42.27;100482.19;5008796;28;20250;-72
2022/03/01 09:46:45;;;;;;;6.67;6.07;;;;;;;12.05;62.06;100444.31;5010335;28;20199;-68
2022/03/01 09:49:13;;;;;;;9.30;8.40;;;;;;;12.40;43.67;100483.56;5010158;28;20250;-68
2022/03/01 09:51:40;;;;;;;9.40;7.97;;;;;;;12.35;42.73;100479.78;5010692;28;20200;-69
2022/03/01 09:54:07;;;;;;;10.80;6.90;;;;;;;12.58;41.21;100485.88;5013287;28;20233;-68
2022/03/01 09:56:34;;;;;;;4.03;3.83;;;;;;;12.53;36.51;100489.06;5030280;28;20285;-70
2022/03/01 09:59:01;;;;;;;4.50;4.20;;;;;;;12.06;38.36;100467.28;5026119;28;20321;-72
2022/03/01 10:01:28;;;;;;;5.43;5.07;;;;;;;11.91;38.57;100461.09;5020360;28;20694;-73
2022/03/01 10:04:07;;;;;;;6.87;4.87;;;;;;;11.84;38.93;100457.50;5013262;28;20196;-69
2022/03/01 10:06:40;;;;;;;8.53;7.37;;;;;;;11.53;40.58;100451.44;5023865;28;20337;-68
2022/03/01 10:09:14;;;;;;;13.60;6.87;;;;;;;11.30;41.16;100441.81;5031206;28;20241;-73
2022/03/01 10:11:41;;;;;;;8.50;7.80;;;;;;;11.07;42.00;100443.63;5028805;28;20670;-70
2022/03/01 10:14:07;;;;;;;9.33;6.67;;;;;;;10.91;41.49;100436.59;5030504;28;20206;-71
2022/03/01 10:16:39;;;;;;;7.20;6.70;;;;;;;10.98;41.77;100430.38;5028530;28;20651;-70
2022/03/01 10:19:13;;;;;;;9.30;7.03;;;;;;;10.96;42.14;100431.56;5030430;28;20623;-70
2022/03/01 10:21:39;;;;;;;7.30;6.80;;;;;;;10.68;41.49;100428.56;5029443;28;20558;-71
2022/03/01 10:24:08;;;;;;;6.60;6.10;;;;;;;10.55;42.15;100422.16;5021046;28;20237;-67
2022/03/01 10:26:37;;;;;;;7.90;6.30;;;;;;;10.60;41.83;100423.28;5009016;28;20237;-69
2022/03/01 10:29:06;;;;;;;7.33;6.83;;;;;;;10.52;42.38;100418.03;5009244;28;20195;-68
2022/03/01 10:31:35;;;;;;;7.27;6.77;;;;;;;10.65;42.18;100412.13;5008597;28;20679;-68
2022/03/01 10:34:04;;;;;;;7.23;6.73;;;;;;;10.89;41.92;100419.97;5008857;28;20213;-70
2022/03/01 10:36:33;;;;;;;6.50;6.00;;;;;;;10.96;41.03;100405.78;5009173;28;20261;-68
2022/03/01 10:39:04;;;;;;;6.30;5.80;;;;;;;10.98;41.30;100403.78;5008065;28;20230;-72
2022/03/01 10:41:33;;;;;;;6.73;6.20;;;;;;;10.51;42.63;100388.97;5009569;28;20604;-69
2022/03/01 10:44:03;;;;;;;6.90;5.83;;;;;;;10.83;42.98;100394.91;5008953;28;20194;-73
2022/03/01 10:46:30;;;;;;;6.63;6.13;;;;;;;11.09;41.88;100386.59;5007172;28;20232;-70
2022/03/01 10:49:05;;;;;;;6.97;6.13;;;;;;;11.13;42.36;100373.78;5007960;28;20666;-69
2022/03/01 10:51:34;;;;;;;11.77;6.97;;;;;;;11.11;42.25;100371.28;5007812;28;20193;-68
2022/03/01 10:54:01;;;;;;;7.97;6.00;;;;;;;10.76;42.55;100369.22;5008184;28;20205;-70
2022/03/01 10:56:38;;;;;;;6.33;6.00;;;;;;;10.20;44.08;100356.22;5014324;28;20222;-68
2022/03/01 10:59:06;;;;;;;9.70;6.27;;;;;;;10.06;43.25;100362.28;5018474;28;20198;-72
2022/03/01 11:01:33;;;;;;;5.40;4.97;;;;;;;9.97;41.93;100360.63;5007787;28;20199;-81
2022/03/01 11:04:00;;;;;;;3.67;3.47;;;;;;;10.12;38.37;100361.56;5008276;28;20661;-70
2022/03/01 11:06:28;;;;;;;4.70;4.17;;;;;;;10.52;37.44;100364.06;5008874;28;20286;-69
2022/03/01 11:08:57;;;;;;;7.70;4.97;;;;;;;10.99;38.58;100351.47;5007992;28;20237;-70
2022/03/01 11:11:26;;;;;;;4.47;4.17;;;;;;;11.39;35.91;100347.63;5009124;28;20263;-72
2022/03/01 11:13:53;;;;;;;5.37;5.00;;;;;;;11.77;35.45;100347.44;5006178;28;20203;-71
2022/03/01 11:16:32;;;;;;;5.43;4.93;;;;;;;11.90;35.51;100347.63;5008369;28;20224;-72
2022/03/01 11:19:09;;;;;;;4.77;4.53;;;;;;;12.14;34.62;100339.38;5008343;28;20599;-75
2022/03/01 11:21:36;;;;;;;12.50;11.43;;;;;;;12.20;33.99;100333.28;5007187;28;20193;-74
2022/03/01 11:24:05;;;;;;;20.63;17.03;;;;;;;12.25;61.49;100298.91;5009450;28;20286;-74
2022/03/01 11:26:37;;;;;;;9.60;8.77;;;;;;;13.15;50.33;100308.88;5011091;28;20193;-76